createdAt,value
2022-08-17T00:04:59.203Z,8.33
2022-08-17T00:10:04.800Z,8.95
2022-08-17T00:15:15.190Z,5.35
2022-08-17T00:20:21.599Z,6.57
2022-08-17T00:25:36.496Z,8.77
2022-08-17T00:30:51.353Z,4.93
2022-08-17T00:36:00.271Z,6.57
2022-08-17T00:41:08.523Z,5.97
2022-08-17T00:46:19.121Z,6.05
2022-08-17T00:51:40.326Z,5.23
2022-08-17T00:56:51.462Z,7.63
2022-08-17T01:02:00.227Z,8.02
2022-08-17T01:07:08.192Z,6.63
2022-08-17T01:12:15.451Z,5.53
2022-08-17T01:17:23.850Z,5.97
2022-08-17T01:22:32.381Z,8.43
2022-08-17T01:27:39.982Z,6.00
2022-08-17T01:32:46.317Z,7.15
2022-08-17T01:38:00.901Z,7.30
2022-08-17T01:43:11.780Z,6.27
2022-08-17T01:48:17.770Z,5.57
2022-08-17T01:53:33.197Z,5.03
2022-08-17T01:58:40.402Z,5.22
2022-08-17T02:03:59.049Z,5.50
2022-08-17T02:09:17.005Z,5.97
2022-08-17T02:14:22.498Z,6.18
2022-08-17T02:19:28.010Z,6.53
2022-08-17T02:24:58.698Z,6.85
2022-08-17T02:30:04.408Z,6.25
2022-08-17T02:35:30.499Z,5.07
2022-08-17T02:40:40.742Z,8.17
2022-08-17T02:45:46.784Z,8.13
2022-08-17T02:50:52.416Z,7.50
2022-08-17T02:56:00.601Z,7.20
2022-08-17T03:01:07.903Z,5.50
2022-08-17T03:06:13.950Z,7.90
2022-08-17T03:11:22.277Z,5.40
2022-08-17T03:16:27.928Z,6.20
2022-08-17T03:21:36.411Z,7.07
2022-08-17T03:26:44.607Z,6.87
2022-08-17T03:31:50.376Z,8.90
2022-08-17T03:36:55.900Z,7.40
2022-08-17T03:42:31.605Z,9.13
2022-08-17T03:47:50.101Z,7.30
2022-08-17T03:53:08.158Z,8.77
2022-08-17T03:58:16.211Z,6.45
2022-08-17T04:03:22.062Z,6.80
2022-08-17T04:08:27.620Z,6.90
2022-08-17T04:13:35.856Z,7.78
2022-08-17T04:18:41.347Z,5.30
2022-08-17T04:23:49.671Z,9.53
2022-08-17T04:28:58.682Z,8.32
2022-08-17T04:34:04.422Z,10.57
2022-08-17T04:39:10.013Z,5.97
2022-08-17T04:44:36.755Z,6.95
2022-08-17T04:49:46.958Z,9.70
2022-08-17T04:54:55.111Z,5.80
2022-08-17T05:00:03.826Z,8.30
2022-08-17T05:05:10.492Z,6.93
2022-08-17T05:10:19.971Z,7.57
2022-08-17T05:15:33.170Z,6.27
2022-08-17T05:20:42.458Z,8.00
2022-08-17T05:25:50.536Z,6.22
2022-08-17T05:31:00.151Z,7.27
2022-08-17T05:36:08.314Z,7.13
2022-08-17T05:41:14.537Z,7.00
2022-08-17T05:46:27.419Z,5.97
2022-08-17T05:51:55.947Z,9.38
2022-08-17T05:57:14.412Z,7.85
2022-08-17T06:02:28.918Z,7.30
2022-08-17T06:07:48.211Z,8.63
2022-08-17T06:13:06.987Z,6.90
2022-08-17T06:18:18.988Z,5.55
2022-08-17T06:23:30.109Z,5.17
2022-08-17T06:28:44.162Z,6.45
2022-08-17T06:33:53.068Z,8.70
2022-08-17T06:39:10.656Z,5.50
2022-08-17T06:44:43.119Z,6.10
2022-08-17T06:49:55.565Z,5.93
2022-08-17T06:55:07.762Z,7.90
2022-08-17T07:00:26.967Z,6.70
2022-08-17T07:05:40.651Z,8.40
2022-08-17T07:10:51.152Z,6.53
2022-08-17T07:16:03.394Z,9.23
2022-08-17T07:21:26.721Z,8.15
2022-08-17T07:26:32.679Z,8.90
2022-08-17T07:31:38.276Z,8.17
2022-08-17T07:36:46.430Z,10.43
2022-08-17T07:41:57.519Z,8.20
2022-08-17T07:47:16.944Z,9.40
2022-08-17T07:52:50.417Z,9.63
2022-08-17T07:58:06.377Z,8.48
2022-08-17T08:03:28.562Z,8.68
2022-08-17T08:08:43.229Z,8.90
2022-08-17T08:13:50.297Z,9.32
2022-08-17T08:18:58.752Z,10.02
2022-08-17T08:24:30.920Z,8.70
2022-08-17T08:29:46.468Z,12.40
2022-08-17T08:35:05.574Z,11.63
2022-08-17T08:40:31.086Z,11.60
2022-08-17T08:45:49.347Z,10.13
2022-08-17T08:51:00.140Z,8.50
2022-08-17T08:56:15.387Z,10.05
2022-08-17T09:01:27.715Z,9.70
2022-08-17T09:06:45.285Z,10.45
2022-08-17T09:12:10.928Z,11.73
2022-08-17T09:17:19.300Z,11.07
2022-08-17T09:22:33.536Z,10.88
2022-08-17T09:27:51.186Z,12.48
2022-08-17T09:33:01.580Z,11.23
2022-08-17T09:38:17.836Z,17.27
2022-08-17T09:43:34.994Z,11.60
2022-08-17T09:48:44.505Z,10.00
2022-08-17T09:53:50.536Z,12.40
2022-08-17T09:59:38.666Z,11.60
2022-08-17T10:04:56.820Z,13.18
2022-08-17T10:10:14.184Z,12.43
2022-08-17T10:15:41.720Z,12.07
2022-08-17T10:21:15.176Z,14.50
2022-08-17T10:26:25.740Z,12.00
2022-08-17T10:31:41.378Z,12.83
2022-08-17T10:36:55.031Z,11.77
2022-08-17T10:42:14.136Z,15.52
2022-08-17T10:48:05.766Z,17.60
2022-08-17T10:53:15.509Z,14.13
2022-08-17T10:58:29.902Z,15.70
2022-08-17T11:03:38.312Z,15.63
2022-08-17T11:09:12.732Z,12.10
2022-08-17T11:14:40.081Z,12.60
2022-08-17T11:20:19.587Z,13.60
2022-08-17T11:25:38.505Z,13.17
2022-08-17T11:30:51.379Z,12.93
2022-08-17T11:36:15.544Z,18.25
2022-08-17T11:41:28.436Z,11.93
2022-08-17T11:46:56.098Z,16.80
2022-08-17T11:52:42.192Z,17.35
2022-08-17T11:58:02.731Z,15.73
2022-08-17T12:03:29.332Z,17.70
2022-08-17T12:08:49.231Z,19.15
2022-08-17T12:14:02.483Z,22.87
2022-08-17T12:19:08.519Z,14.73
2022-08-17T12:24:37.565Z,16.55
2022-08-17T12:29:47.315Z,16.60
2022-08-17T12:34:54.352Z,21.00
2022-08-17T12:40:05.755Z,19.40
2022-08-17T12:45:25.235Z,22.50
2022-08-17T12:50:32.520Z,21.93
2022-08-17T12:55:43.027Z,21.05
2022-08-17T13:00:53.704Z,18.38
2022-08-17T13:06:01.308Z,19.63
2022-08-17T13:11:12.147Z,18.50
2022-08-17T13:16:21.246Z,19.90
2022-08-17T13:21:30.810Z,20.77
2022-08-17T13:26:44.842Z,21.10
2022-08-17T13:31:52.665Z,23.08
2022-08-17T13:37:27.436Z,25.75
2022-08-17T13:42:52.001Z,20.27
2022-08-17T13:48:08.890Z,20.05
2022-08-17T13:53:25.464Z,27.65
2022-08-17T13:58:38.301Z,29.77
2022-08-17T14:03:44.411Z,23.90
2022-08-17T14:08:57.581Z,24.38
2022-08-17T14:14:06.380Z,25.50
2022-08-17T14:19:12.901Z,22.97
2022-08-17T14:24:32.383Z,23.45
2022-08-17T14:29:41.289Z,24.83
2022-08-17T14:34:47.399Z,25.37
2022-08-17T14:39:53.219Z,25.73
2022-08-17T14:45:06.622Z,26.08
2022-08-17T14:50:35.583Z,27.33
2022-08-17T14:55:42.766Z,23.67
2022-08-17T15:00:52.683Z,27.55
2022-08-17T15:05:58.585Z,28.13
2022-08-17T15:11:05.372Z,29.93
2022-08-17T15:16:14.142Z,71.40
2022-08-17T15:21:24.364Z,31.08
2022-08-17T15:26:30.498Z,27.57
2022-08-17T15:31:39.199Z,23.08
2022-08-17T15:36:49.454Z,23.52
2022-08-17T15:41:58.063Z,25.73
2022-08-17T15:47:07.149Z,28.90
2022-08-17T15:52:19.677Z,28.45
2022-08-17T15:57:26.223Z,23.65
2022-08-17T16:03:44.835Z,27.30
2022-08-17T16:08:02.655Z,24.77
2022-08-17T16:13:17.346Z,24.58
2022-08-17T16:18:31.261Z,21.30
2022-08-17T16:23:36.981Z,26.17
2022-08-17T16:28:42.429Z,19.90
2022-08-17T16:34:15.652Z,24.27
2022-08-17T16:39:18.086Z,20.70
2022-08-17T16:44:26.054Z,19.63
2022-08-17T16:49:36.954Z,15.80
2022-08-17T16:54:47.199Z,14.33
2022-08-17T16:59:53.589Z,15.25
2022-08-17T17:05:05.698Z,11.02
2022-08-17T17:10:15.586Z,11.50
2022-08-17T17:15:28.317Z,11.75
2022-08-17T17:20:47.475Z,11.45
2022-08-17T17:25:59.406Z,11.63
2022-08-17T17:31:11.195Z,8.93
2022-08-17T17:36:27.794Z,9.68
2022-08-17T17:41:39.766Z,10.45
2022-08-17T17:46:50.005Z,11.23
2022-08-17T17:52:09.682Z,9.27
2022-08-17T17:57:25.919Z,9.27
2022-08-17T18:02:52.717Z,8.83
2022-08-17T18:08:11.012Z,10.88
2022-08-17T18:13:25.928Z,8.77
2022-08-17T18:18:44.635Z,8.57
2022-08-17T18:23:58.108Z,11.57
2022-08-17T18:29:10.703Z,12.00
2022-08-17T18:39:54.317Z,15.20
2022-08-17T18:44:59.971Z,13.00
2022-08-17T18:50:25.114Z,16.52
2022-08-17T18:55:33.544Z,18.53
2022-08-17T19:00:41.478Z,14.50
2022-08-17T19:05:49.562Z,11.18
2022-08-17T19:11:02.004Z,10.83
2022-08-17T19:16:16.132Z,11.83
2022-08-17T19:21:25.930Z,11.35
2022-08-17T19:26:50.721Z,12.90
2022-08-17T19:32:01.076Z,10.33
2022-08-17T19:37:13.090Z,11.63
2022-08-17T19:42:34.227Z,9.43
2022-08-17T19:47:55.348Z,11.53
2022-08-17T19:53:07.600Z,11.25
2022-08-17T19:58:30.113Z,13.20
2022-08-17T20:03:41.147Z,11.50
2022-08-17T20:09:01.751Z,13.37
2022-08-17T20:14:14.893Z,11.68
2022-08-17T20:19:27.086Z,12.05
2022-08-17T20:24:38.497Z,11.40
2022-08-17T20:30:09.210Z,12.02
2022-08-17T20:35:33.307Z,12.30
2022-08-17T20:40:42.271Z,12.83
2022-08-17T20:46:11.067Z,12.63
2022-08-17T20:51:26.070Z,13.32
2022-08-17T20:56:57.989Z,14.63
2022-08-17T21:02:18.590Z,13.13
2022-08-17T21:07:33.068Z,13.48
2022-08-17T21:13:02.304Z,13.57
2022-08-17T21:18:19.514Z,14.77
2022-08-17T21:23:43.974Z,14.18
2022-08-17T21:29:17.196Z,15.80
2022-08-17T21:34:38.961Z,12.70
2022-08-17T21:39:54.148Z,13.75
2022-08-17T21:45:04.506Z,13.52
2022-08-17T21:50:27.938Z,14.17
2022-08-17T21:55:38.743Z,14.03
2022-08-17T22:00:46.825Z,16.08
2022-08-17T22:05:55.004Z,17.42
2022-08-17T22:11:04.530Z,17.17
2022-08-17T22:16:29.437Z,15.93
2022-08-17T22:21:38.095Z,20.38
2022-08-17T22:27:12.107Z,27.03
2022-08-17T22:32:35.078Z,22.48
2022-08-17T22:37:43.242Z,20.48
2022-08-17T22:42:53.570Z,18.30
2022-08-17T22:48:02.193Z,21.47
2022-08-17T22:53:32.089Z,24.88
2022-08-17T22:58:58.765Z,24.95
2022-08-17T23:04:09.071Z,25.10
2022-08-17T23:09:17.186Z,21.33
2022-08-17T23:14:24.180Z,22.42
2022-08-17T23:19:32.807Z,23.17
2022-08-17T23:24:44.951Z,25.55
2022-08-17T23:29:50.847Z,29.20
2022-08-17T23:34:59.283Z,23.80
2022-08-17T23:40:08.694Z,34.20
2022-08-17T23:45:14.711Z,34.22
2022-08-17T23:50:20.739Z,36.60
2022-08-17T23:55:30.640Z,31.90
